Rochester International Airport
KRST : now visible

Airfield :











YOU CAN JOIN US ON...

 
LOGIN :

Register | Disclaimer

   EN    FR    IT 

 









Legend :    VFR   Marginal VFR   IFR   Intensive IFR   Very Intensive IFR
Visi :
Ceiling :
>= 8 km
>= 3000ft
5 to 8 km
1000 to 3000 ft
1500m to 5 km
500 to 1000 ft
800 to 1500m
200 to 500 ft
< 800m
< 200 ft
Symbols :   Thunderstorms  Fog  Heavy snow  Heavy precipitations  Wind > 20 kt







- Airport Elevation : 1317 ft
- IATA code : RST


KRST - Rochester International

CURRENT METAR :
  • 241854Z AUTO 17018G24KT 10SM BKN018 BKN025 19/16 A2987 RMK AO2 SLP113 T01940156

EXPIRED METARs :
  • 241754Z 15017KT 10SM OVC016 18/14 A2988 RMK AO2 SLP120 60014 T01780144 10178 20111 58017
  • 241727Z 16014G24KT 10SM FEW012 OVC018 17/14 A2990 RMK AO2 T01720144
  • 241658Z 14014KT 10SM BKN010 OVC015 16/13 A2991 RMK AO2 CIG 007V012 T01560133
  • 241654Z 15013KT 10SM OVC009 16/13 A2992 RMK AO2 CIG 007V014 SLP133 T01560133

TAF KRST
Valid from the 24 at 18:00 until the 25 at 18:00 UTC


241731Z 2418/2518 15015G25KT P6SM OVC015
FM242300 19010G19KT P6SM BKN045
FM250000 20008KT P6SM SCT060
FM251300 24008KT P6SM FEW250
KZMP FIR / North America



MET'MAP, your aeronautical weather chart ! - Copyright ORBIFLY December 2007 - Disclaimer

ORBIFLY MET'MAP TEAM :

Programming & Development : Alexandra Zaïnal
Concept & Development : Baudouin d'Aumeries
Co-Development & Prog : Marc-Olivier Méhu
Technical & hardware support : Manuel Goepfert

Contact : metmap@orbifly.com




SOURCES & CREDITS :

   NOAA       Earth
Advisory